Sanliurfa, Turkey
Current Conditions -  °F | °C
As of 7:50 PM on Monday 20 Oct 2014 (Local Time) from LTCS Reporting Station
Scattered Clouds Scattered Clouds  
Wind Chill: 52°   Ceiling: Unl
Heat Index: 52°   Visibility: 6mi
Dew Point: 32°   Wind: 9mph
Humidity: 47%   Direction: 320°NW
Pressure: 29.88"   Gusts: NA
Location:  37.15°N, 38.8°E
Report Text: LTCS 201750Z 32008KT 9999 SCT040 11/00 Q1012
Loading
Personal Weather Stations






























Interactive Weather Map
Tropical Storm Tracking
New forecast layout! Learn more

10-Day Weather Forecast

Advertisements
Track Severe Weather on mobile